sensor_id;sensor_type;location;lat;lon;timestamp;pressure;altitude;pressure_sealevel;temperature;humidity
44144;BME280;68165;51.920;4.492;2023-03-20T00:01:12;67006.31;;;10.37;100.00
44144;BME280;68165;51.920;4.492;2023-03-20T00:03:38;66997.94;;;10.29;100.00
44144;BME280;68165;51.920;4.492;2023-03-20T00:06:04;66990.69;;;10.22;100.00
44144;BME280;68165;51.920;4.492;2023-03-20T00:08:29;66995.38;;;10.22;100.00
44144;BME280;68165;51.920;4.492;2023-03-20T00:10:57;66989.94;;;10.19;100.00
44144;BME280;68165;51.920;4.492;2023-03-20T00:13:24;66989.22;;;10.16;100.00
44144;BME280;68165;51.920;4.492;2023-03-20T00:15:52;66985.13;;;10.17;100.00
44144;BME280;68165;51.920;4.492;2023-03-20T00:18:20;66979.13;;;10.14;100.00
44144;BME280;68165;51.920;4.492;2023-03-20T00:20:48;66980.06;;;10.13;100.00
44144;BME280;68165;51.920;4.492;2023-03-20T00:23:14;66977.84;;;10.11;100.00
44144;BME280;68165;51.920;4.492;2023-03-20T00:25:41;66975.59;;;10.09;100.00
44144;BME280;68165;51.920;4.492;2023-03-20T00:30:51;66972.66;;;10.04;100.00
44144;BME280;68165;51.920;4.492;2023-03-20T00:33:17;66972.81;;;10.06;100.00
44144;BME280;68165;51.920;4.492;2023-03-20T00:35:42;66976.72;;;10.10;100.00
44144;BME280;68165;51.920;4.492;2023-03-20T00:38:07;66983.63;;;10.11;100.00
44144;BME280;68165;51.920;4.492;2023-03-20T00:40:33;66978.97;;;10.12;100.00
44144;BME280;68165;51.920;4.492;2023-03-20T00:43:00;66971.16;;;10.05;100.00
44144;BME280;68165;51.920;4.492;2023-03-20T00:45:27;66970.25;;;9.99;100.00
44144;BME280;68165;51.920;4.492;2023-03-20T00:47:53;66965.25;;;9.95;100.00
44144;BME280;68165;51.920;4.492;2023-03-20T00:50:22;66954.25;;;9.87;100.00
44144;BME280;68165;51.920;4.492;2023-03-20T00:52:49;66960.22;;;9.90;100.00
44144;BME280;68165;51.920;4.492;2023-03-20T00:55:16;66949.63;;;9.80;100.00
44144;BME280;68165;51.920;4.492;2023-03-20T00:57:48;66957.59;;;9.90;100.00
44144;BME280;68165;51.920;4.492;2023-03-20T01:00:21;66954.97;;;9.90;100.00
44144;BME280;68165;51.920;4.492;2023-03-20T01:02:48;66954.81;;;9.88;100.00
44144;BME280;68165;51.920;4.492;2023-03-20T01:05:14;66956.31;;;9.87;100.00
44144;BME280;68165;51.920;4.492;2023-03-20T01:07:40;66944.00;;;9.82;100.00
44144;BME280;68165;51.920;4.492;2023-03-20T01:10:06;66949.81;;;9.83;100.00
44144;BME280;68165;51.920;4.492;2023-03-20T01:12:32;66947.19;;;9.83;100.00
44144;BME280;68165;51.920;4.492;2023-03-20T01:14:57;66947.56;;;9.81;100.00
44144;BME280;68165;51.920;4.492;2023-03-20T01:17:25;66937.69;;;9.74;100.00
44144;BME280;68165;51.920;4.492;2023-03-20T01:19:51;66938.81;;;9.75;100.00
44144;BME280;68165;51.920;4.492;2023-03-20T01:22:18;66937.13;;;9.74;100.00
44144;BME280;68165;51.920;4.492;2023-03-20T01:24:45;66941.59;;;9.78;100.00
44144;BME280;68165;51.920;4.492;2023-03-20T01:27:16;66958.00;;;9.88;100.00
44144;BME280;68165;51.920;4.492;2023-03-20T01:29:42;66953.84;;;9.89;100.00
44144;BME280;68165;51.920;4.492;2023-03-20T01:32:15;66963.91;;;9.98;100.00
44144;BME280;68165;51.920;4.492;2023-03-20T01:34:41;66966.91;;;9.96;100.00
44144;BME280;68165;51.920;4.492;2023-03-20T01:37:13;66971.16;;;10.05;100.00
44144;BME280;68165;51.920;4.492;2023-03-20T01:39:39;66968.75;;;10.00;100.00
44144;BME280;68165;51.920;4.492;2023-03-20T01:42:05;66965.97;;;9.98;100.00
44144;BME280;68165;51.920;4.492;2023-03-20T01:44:33;66960.78;;;9.91;100.00
44144;BME280;68165;51.920;4.492;2023-03-20T01:47:01;66957.44;;;9.88;100.00
44144;BME280;68165;51.920;4.492;2023-03-20T01:51:53;66948.13;;;9.81;100.00
44144;BME280;68165;51.920;4.492;2023-03-20T01:54:34;66957.22;;;9.92;100.00
44144;BME280;68165;51.920;4.492;2023-03-20T01:59:46;66963.91;;;9.98;100.00
44144;BME280;68165;51.920;4.492;2023-03-20T02:02:18;66961.66;;;9.96;100.00
44144;BME280;68165;51.920;4.492;2023-03-20T02:04:47;66960.53;;;9.95;100.00
44144;BME280;68165;51.920;4.492;2023-03-20T02:07:17;66966.53;;;9.98;100.00
44144;BME280;68165;51.920;4.492;2023-03-20T02:09:46;66965.97;;;9.98;100.00
44144;BME280;68165;51.920;4.492;2023-03-20T02:12:12;66961.66;;;9.96;100.00
44144;BME280;68165;51.920;4.492;2023-03-20T02:14:37;66969.31;;;10.01;100.00
44144;BME280;68165;51.920;4.492;2023-03-20T02:17:04;66961.09;;;9.96;100.00
44144;BME280;68165;51.920;4.492;2023-03-20T02:36:47;66918.00;;;9.54;100.00
44144;BME280;68165;51.920;4.492;2023-03-20T02:39:22;66904.81;;;9.45;100.00
44144;BME280;68165;51.920;4.492;2023-03-20T02:42:14;66912.63;;;9.52;100.00
44144;BME280;68165;51.920;4.492;2023-03-20T02:44:45;66910.78;;;9.48;100.00
44144;BME280;68165;51.920;4.492;2023-03-20T02:50:11;66925.44;;;9.63;100.00
44144;BME280;68165;51.920;4.492;2023-03-20T02:58:36;66922.66;;;9.61;100.00
44144;BME280;68165;51.920;4.492;2023-03-20T03:01:10;66923.22;;;9.61;100.00
44144;BME280;68165;51.920;4.492;2023-03-20T03:03:46;66918.19;;;9.57;100.00
44144;BME280;68165;51.920;4.492;2023-03-20T03:06:19;66921.19;;;9.55;100.00
44144;BME280;68165;51.920;4.492;2023-03-20T03:08:49;66906.84;;;9.51;100.00
44144;BME280;68165;51.920;4.492;2023-03-20T03:11:17;66931.63;;;9.62;100.00
44144;BME280;68165;51.920;4.492;2023-03-20T03:13:52;66928.22;;;9.66;100.00
44144;BME280;68165;51.920;4.492;2023-03-20T03:16:38;66937.13;;;9.74;100.00
44144;BME280;68165;51.920;4.492;2023-03-20T03:19:12;66929.00;;;9.62;100.00
44144;BME280;68165;51.920;4.492;2023-03-20T03:21:38;66923.75;;;9.62;100.00
44144;BME280;68165;51.920;4.492;2023-03-20T03:24:06;66923.22;;;9.61;100.00
44144;BME280;68165;51.920;4.492;2023-03-20T03:26:42;66920.97;;;9.59;100.00
44144;BME280;68165;51.920;4.492;2023-03-20T03:29:14;66922.66;;;9.61;100.00
44144;BME280;68165;51.920;4.492;2023-03-20T03:31:42;66911.50;;;9.51;100.00
44144;BME280;68165;51.920;4.492;2023-03-20T03:34:12;66928.44;;;9.61;100.00
44144;BME280;68165;51.920;4.492;2023-03-20T03:37:01;66928.22;;;9.66;100.00
44144;BME280;68165;51.920;4.492;2023-03-20T03:39:40;66922.31;;;9.56;100.00
44144;BME280;68165;51.920;4.492;2023-03-20T03:42:25;66915.41;;;9.54;100.00
44144;BME280;68165;51.920;4.492;2023-03-20T03:53:02;66918.75;;;9.57;100.00
44144;BME280;68165;51.920;4.492;2023-03-20T03:55:34;66915.97;;;9.55;100.00
44144;BME280;68165;51.920;4.492;2023-03-20T03:58:05;66915.97;;;9.55;100.00
44144;BME280;68165;51.920;4.492;2023-03-20T04:00:33;66909.66;;;9.47;100.00
44144;BME280;68165;51.920;4.492;2023-03-20T04:03:00;66909.84;;;9.49;100.00
44144;BME280;68165;51.920;4.492;2023-03-20T04:05:27;66910.00;;;9.52;100.00
44144;BME280;68165;51.920;4.492;2023-03-20T04:08:03;66916.91;;;9.53;100.00
44144;BME280;68165;51.920;4.492;2023-03-20T04:10:29;66904.81;;;9.45;100.00
44144;BME280;68165;51.920;4.492;2023-03-20T04:12:55;66907.44;;;9.45;100.00
44144;BME280;68165;51.920;4.492;2023-03-20T04:15:21;66905.94;;;9.46;100.00
44144;BME280;68165;51.920;4.492;2023-03-20T04:17:46;66904.25;;;9.44;100.00
44144;BME280;68165;51.920;4.492;2023-03-20T04:20:13;66911.88;;;9.49;100.00
44144;BME280;68165;51.920;4.492;2023-03-20T04:22:40;66918.00;;;9.54;100.00
44144;BME280;68165;51.920;4.492;2023-03-20T04:25:08;66912.63;;;9.52;100.00
44144;BME280;68165;51.920;4.492;2023-03-20T04:27:33;66915.97;;;9.55;100.00
44144;BME280;68165;51.920;4.492;2023-03-20T04:29:59;66921.19;;;9.55;100.00
44144;BME280;68165;51.920;4.492;2023-03-20T04:32:24;66918.19;;;9.57;100.00
44144;BME280;68165;51.920;4.492;2023-03-20T04:34:50;66921.38;;;9.57;100.00
44144;BME280;68165;51.920;4.492;2023-03-20T04:37:16;66920.81;;;9.57;100.00
44144;BME280;68165;51.920;4.492;2023-03-20T04:39:42;66923.22;;;9.61;100.00
44144;BME280;68165;51.920;4.492;2023-03-20T04:42:08;66926.56;;;9.64;100.00
44144;BME280;68165;51.920;4.492;2023-03-20T04:44:33;66924.88;;;9.63;100.00
44144;BME280;68165;51.920;4.492;2023-03-20T04:46:59;66924.88;;;9.63;100.00
44144;BME280;68165;51.920;4.492;2023-03-20T04:49:25;66919.31;;;9.58;100.00
44144;BME280;68165;51.920;4.492;2023-03-20T04:51:51;66920.22;;;9.63;100.00
44144;BME280;68165;51.920;4.492;2023-03-20T04:54:17;66923.22;;;9.61;100.00
44144;BME280;68165;51.920;4.492;2023-03-20T04:56:43;66923.75;;;9.62;100.00
44144;BME280;68165;51.920;4.492;2023-03-20T04:59:08;66929.34;;;9.67;100.00
44144;BME280;68165;51.920;4.492;2023-03-20T05:01:34;66940.13;;;9.72;100.00
44144;BME280;68165;51.920;4.492;2023-03-20T05:03:59;66934.91;;;9.72;100.00
44144;BME280;68165;51.920;4.492;2023-03-20T05:06:29;66942.38;;;9.74;100.00
44144;BME280;68165;51.920;4.492;2023-03-20T05:08:56;66937.13;;;9.74;100.00
44144;BME280;68165;51.920;4.492;2023-03-20T05:11:23;66943.84;;;9.80;100.00
44144;BME280;68165;51.920;4.492;2023-03-20T05:13:49;66945.50;;;9.81;100.00
44144;BME280;68165;51.920;4.492;2023-03-20T05:16:15;66948.47;;;9.87;100.00
44144;BME280;68165;51.920;4.492;2023-03-20T05:18:40;66948.28;;;9.84;100.00
44144;BME280;68165;51.920;4.492;2023-03-20T05:21:06;66942.56;;;9.76;100.00
44144;BME280;68165;51.920;4.492;2023-03-20T05:23:32;66937.53;;;9.72;100.00
44144;BME280;68165;51.920;4.492;2023-03-20T05:25:57;66945.72;;;9.77;100.00
44144;BME280;68165;51.920;4.492;2023-03-20T05:28:23;66940.50;;;9.77;100.00
44144;BME280;68165;51.920;4.492;2023-03-20T05:30:48;66935.47;;;9.72;100.00
44144;BME280;68165;51.920;4.492;2023-03-20T05:33:14;66940.50;;;9.77;100.00
44144;BME280;68165;51.920;4.492;2023-03-20T05:35:39;66937.13;;;9.74;100.00
44144;BME280;68165;51.920;4.492;2023-03-20T05:38:05;66932.13;;;9.69;100.00
44144;BME280;68165;51.920;4.492;2023-03-20T05:40:30;66932.50;;;9.67;100.00
44144;BME280;68165;51.920;4.492;2023-03-20T05:42:56;66930.47;;;9.68;100.00
44144;BME280;68165;51.920;4.492;2023-03-20T05:45:21;66932.69;;;9.70;100.00
44144;BME280;68165;51.920;4.492;2023-03-20T05:47:47;66929.34;;;9.67;100.00
44144;BME280;68165;51.920;4.492;2023-03-20T05:50:12;66933.81;;;9.71;100.00
44144;BME280;68165;51.920;4.492;2023-03-20T05:52:38;66940.50;;;9.77;100.00
44144;BME280;68165;51.920;4.492;2023-03-20T05:55:04;66936.03;;;9.73;100.00
44144;BME280;68165;51.920;4.492;2023-03-20T05:57:30;66938.09;;;9.72;100.00
44144;BME280;68165;51.920;4.492;2023-03-20T05:59:55;66938.09;;;9.72;100.00
44144;BME280;68165;51.920;4.492;2023-03-20T06:02:21;66949.63;;;9.80;100.00
44144;BME280;68165;51.920;4.492;2023-03-20T06:04:46;66952.56;;;9.86;100.00
44144;BME280;68165;51.920;4.492;2023-03-20T06:07:12;66952.91;;;9.91;100.00
44144;BME280;68165;51.920;4.492;2023-03-20T06:09:37;66950.69;;;9.89;100.00
44144;BME280;68165;51.920;4.492;2023-03-20T06:12:03;66948.69;;;9.82;100.00
44144;BME280;68165;51.920;4.492;2023-03-20T06:14:28;66953.69;;;9.87;100.00
44144;BME280;68165;51.920;4.492;2023-03-20T06:16:53;66958.56;;;9.89;100.00
44144;BME280;68165;51.920;4.492;2023-03-20T06:19:20;66946.78;;;9.85;100.00
44144;BME280;68165;51.920;4.492;2023-03-20T06:21:49;66949.81;;;9.83;100.00
44144;BME280;68165;51.920;4.492;2023-03-20T06:24:15;66949.75;;;9.90;100.00
44144;BME280;68165;51.920;4.492;2023-03-20T06:26:40;66960.53;;;9.95;100.00
44144;BME280;68165;51.920;4.492;2023-03-20T06:29:06;66970.97;;;10.02;100.00
44144;BME280;68165;51.920;4.492;2023-03-20T06:31:32;66967.47;;;9.97;100.00
44144;BME280;68165;51.920;4.492;2023-03-20T06:33:57;66967.22;;;10.01;100.00
44144;BME280;68165;51.920;4.492;2023-03-20T06:36:23;66969.81;;;10.08;100.00
44144;BME280;68165;51.920;4.492;2023-03-20T06:38:49;66969.09;;;10.05;100.00
44144;BME280;68165;51.920;4.492;2023-03-20T06:41:14;66973.00;;;10.09;100.00
44144;BME280;68165;51.920;4.492;2023-03-20T06:43:40;66978.41;;;10.11;100.00
44144;BME280;68165;51.920;4.492;2023-03-20T06:46:07;66985.47;;;10.15;100.00
44144;BME280;68165;51.920;4.492;2023-03-20T06:48:32;66988.44;;;10.20;100.00
44144;BME280;68165;51.920;4.492;2023-03-20T06:50:58;66987.31;;;10.19;100.00
44144;BME280;68165;51.920;4.492;2023-03-20T06:53:23;66988.28;;;10.18;100.00
44144;BME280;68165;51.920;4.492;2023-03-20T06:55:49;66983.63;;;10.18;100.00
44144;BME280;68165;51.920;4.492;2023-03-20T06:58:16;66986.63;;;10.16;100.00
44144;BME280;68165;51.920;4.492;2023-03-20T07:00:43;66974.47;;;10.08;100.00
44144;BME280;68165;51.920;4.492;2023-03-20T07:03:09;66978.97;;;10.12;100.00
44144;BME280;68165;51.920;4.492;2023-03-20T07:05:36;66978.97;;;10.12;100.00
44144;BME280;68165;51.920;4.492;2023-03-20T07:08:03;66976.53;;;10.07;100.00
44144;BME280;68165;51.920;4.492;2023-03-20T07:10:28;66976.72;;;10.10;100.00
44144;BME280;68165;51.920;4.492;2023-03-20T07:12:54;66990.34;;;10.17;100.00
44144;BME280;68165;51.920;4.492;2023-03-20T07:15:20;66992.53;;;10.27;99.95
44144;BME280;68165;51.920;4.492;2023-03-20T07:17:45;66995.53;;;10.25;100.00
44144;BME280;68165;51.920;4.492;2023-03-20T07:20:11;66995.13;;;10.27;100.00
44144;BME280;68165;51.920;4.492;2023-03-20T07:22:38;67003.88;;;10.32;100.00
44144;BME280;68165;51.920;4.492;2023-03-20T07:25:04;67008.94;;;10.37;100.00
44144;BME280;68165;51.920;4.492;2023-03-20T07:27:30;66997.94;;;10.29;100.00
44144;BME280;68165;51.920;4.492;2023-03-20T07:29:55;66998.50;;;10.30;100.00
44144;BME280;68165;51.920;4.492;2023-03-20T07:32:21;67004.84;;;10.31;100.00
44144;BME280;68165;51.920;4.492;2023-03-20T07:34:46;67005.19;;;10.36;100.00
44144;BME280;68165;51.920;4.492;2023-03-20T07:37:13;67003.50;;;10.34;100.00
44144;BME280;68165;51.920;4.492;2023-03-20T07:39:39;66989.94;;;10.19;100.00
44144;BME280;68165;51.920;4.492;2023-03-20T07:42:04;66985.47;;;10.15;100.00
44144;BME280;68165;51.920;4.492;2023-03-20T07:44:30;66981.72;;;10.14;100.00
44144;BME280;68165;51.920;4.492;2023-03-20T07:46:56;66988.09;;;10.15;100.00
44144;BME280;68165;51.920;4.492;2023-03-20T07:49:21;66972.09;;;10.03;100.00
44144;BME280;68165;51.920;4.492;2023-03-20T07:51:48;66943.84;;;9.80;100.00
44144;BME280;68165;51.920;4.492;2023-03-20T07:54:14;66935.31;;;9.70;100.00
44144;BME280;68165;51.920;4.492;2023-03-20T07:56:40;66927.13;;;9.65;100.00
44144;BME280;68165;51.920;4.492;2023-03-20T07:59:06;66926.94;;;9.62;100.00
44144;BME280;68165;51.920;4.492;2023-03-20T08:01:31;66917.47;;;9.54;100.00
44144;BME280;68165;51.920;4.492;2023-03-20T08:03:57;66916.19;;;9.50;100.00
44144;BME280;68165;51.920;4.492;2023-03-20T08:06:22;66925.66;;;9.59;100.00
44144;BME280;68165;51.920;4.492;2023-03-20T08:08:48;66923.38;;;9.64;100.00
44144;BME280;68165;51.920;4.492;2023-03-20T08:11:17;66940.53;;;9.70;100.00
44144;BME280;68165;51.920;4.492;2023-03-20T08:13:43;66939.03;;;9.71;100.00
44144;BME280;68165;51.920;4.492;2023-03-20T08:16:08;66929.19;;;9.64;100.00
44144;BME280;68165;51.920;4.492;2023-03-20T08:18:34;66915.03;;;9.56;100.00
44144;BME280;68165;51.920;4.492;2023-03-20T08:20:59;66910.78;;;9.48;100.00
44144;BME280;68165;51.920;4.492;2023-03-20T08:23:25;66909.13;;;9.46;100.00
44144;BME280;68165;51.920;4.492;2023-03-20T08:25:51;66909.84;;;9.49;100.00
44144;BME280;68165;51.920;4.492;2023-03-20T08:28:18;66923.75;;;9.62;100.00
44144;BME280;68165;51.920;4.492;2023-03-20T08:30:44;66932.50;;;9.67;100.00
44144;BME280;68165;51.920;4.492;2023-03-20T08:33:10;66933.25;;;9.70;100.00
44144;BME280;68165;51.920;4.492;2023-03-20T08:35:36;66937.53;;;9.72;100.00
44144;BME280;68165;51.920;4.492;2023-03-20T08:38:02;66939.75;;;9.74;100.00
44144;BME280;68165;51.920;4.492;2023-03-20T08:40:28;66939.38;;;9.76;100.00
44144;BME280;68165;51.920;4.492;2023-03-20T08:42:53;66942.72;;;9.79;100.00
44144;BME280;68165;51.920;4.492;2023-03-20T08:45:19;66931.22;;;9.64;100.00
44144;BME280;68165;51.920;4.492;2023-03-20T08:47:47;66946.44;;;9.80;100.00
44144;BME280;68165;51.920;4.492;2023-03-20T08:50:13;66945.66;;;9.84;100.00
44144;BME280;68165;51.920;4.492;2023-03-20T08:52:40;66942.16;;;9.78;100.00
44144;BME280;68165;51.920;4.492;2023-03-20T08:55:09;66952.19;;;9.88;100.00
44144;BME280;68165;51.920;4.492;2023-03-20T08:57:35;66962.63;;;9.95;100.00
44144;BME280;68165;51.920;4.492;2023-03-20T09:00:03;66965.03;;;9.99;100.00
44144;BME280;68165;51.920;4.492;2023-03-20T09:02:28;66957.22;;;9.92;100.00
44144;BME280;68165;51.920;4.492;2023-03-20T09:04:54;66958.31;;;9.93;100.00
44144;BME280;68165;51.920;4.492;2023-03-20T09:07:19;66949.06;;;9.80;100.00
44144;BME280;68165;51.920;4.492;2023-03-20T09:09:46;66940.50;;;9.77;100.00
44144;BME280;68165;51.920;4.492;2023-03-20T09:12:11;66949.41;;;9.85;100.00
44144;BME280;68165;51.920;4.492;2023-03-20T09:14:36;66957.03;;;9.90;100.00
44144;BME280;68165;51.920;4.492;2023-03-20T09:17:04;66968.00;;;9.97;100.00
44144;BME280;68165;51.920;4.492;2023-03-20T09:19:31;66974.31;;;10.05;100.00
44144;BME280;68165;51.920;4.492;2023-03-20T09:21:57;66969.84;;;10.01;100.00
44144;BME280;68165;51.920;4.492;2023-03-20T09:24:22;66975.81;;;10.04;100.00
44144;BME280;68165;51.920;4.492;2023-03-20T09:26:49;66975.44;;;10.06;100.00
44144;BME280;68165;51.920;4.492;2023-03-20T09:29:14;66982.84;;;10.15;100.00
44144;BME280;68165;51.920;4.492;2023-03-20T09:31:40;66992.19;;;10.21;100.00
44144;BME280;68165;51.920;4.492;2023-03-20T09:34:05;66996.25;;;10.28;100.00
44144;BME280;68165;51.920;4.492;2023-03-20T09:36:31;67021.91;;;10.51;100.00
44144;BME280;68165;51.920;4.492;2023-03-20T09:38:57;67044.38;;;10.74;100.00
44144;BME280;68165;51.920;4.492;2023-03-20T09:41:23;67066.53;;;10.91;100.00
44144;BME280;68165;51.920;4.492;2023-03-20T09:44:11;67116.78;;;11.37;100.00
44144;BME280;68165;51.920;4.492;2023-03-20T09:51:56;67161.28;;;11.75;100.00
44144;BME280;68165;51.920;4.492;2023-03-20T09:54:33;67160.31;;;11.76;100.00
44144;BME280;68165;51.920;4.492;2023-03-20T09:57:02;67157.34;;;11.71;100.00
44144;BME280;68165;51.920;4.492;2023-03-20T09:59:31;67156.78;;;11.71;100.00
44144;BME280;68165;51.920;4.492;2023-03-20T10:02:05;67161.84;;;11.75;100.00
44144;BME280;68165;51.920;4.492;2023-03-20T10:04:32;67156.41;;;11.73;100.00
44144;BME280;68165;51.920;4.492;2023-03-20T10:07:02;67155.47;;;11.74;100.00
44144;BME280;68165;51.920;4.492;2023-03-20T10:09:29;67159.22;;;11.75;100.00
44144;BME280;68165;51.920;4.492;2023-03-20T10:20:31;67115.97;;;11.41;100.00
44144;BME280;68165;51.920;4.492;2023-03-20T10:23:05;67120.09;;;11.40;100.00
44144;BME280;68165;51.920;4.492;2023-03-20T10:25:35;67118.59;;;11.41;100.00
44144;BME280;68165;51.920;4.492;2023-03-20T10:28:12;67127.75;;;11.44;100.00
44144;BME280;68165;51.920;4.492;2023-03-20T10:31:32;67136.13;;;11.52;100.00
44144;BME280;68165;51.920;4.492;2023-03-20T10:36:48;67114.16;;;11.37;100.00
44144;BME280;68165;51.920;4.492;2023-03-20T10:41:58;67090.75;;;11.09;100.00
44144;BME280;68165;51.920;4.492;2023-03-20T10:44:34;67082.72;;;11.06;100.00
44144;BME280;68165;51.920;4.492;2023-03-20T10:47:02;67072.50;;;10.94;100.00
44144;BME280;68165;51.920;4.492;2023-03-20T10:52:02;67071.78;;;10.91;100.00
44144;BME280;68165;51.920;4.492;2023-03-20T10:54:34;67085.91;;;11.07;100.00
44144;BME280;68165;51.920;4.492;2023-03-20T10:57:04;67076.97;;;10.98;100.00
44144;BME280;68165;51.920;4.492;2023-03-20T10:59:38;67094.81;;;11.15;100.00
44144;BME280;68165;51.920;4.492;2023-03-20T11:02:15;67103.94;;;11.25;100.00
44144;BME280;68165;51.920;4.492;2023-03-20T11:04:42;67098.34;;;11.20;100.00
44144;BME280;68165;51.920;4.492;2023-03-20T11:07:30;67125.34;;;11.40;100.00
44144;BME280;68165;51.920;4.492;2023-03-20T11:10:10;67135.75;;;11.54;100.00
44144;BME280;68165;51.920;4.492;2023-03-20T11:12:42;67133.50;;;11.52;100.00
44144;BME280;68165;51.920;4.492;2023-03-20T11:17:56;67154.41;;;11.66;100.00
44144;BME280;68165;51.920;4.492;2023-03-20T11:20:25;67140.94;;;11.61;100.00
44144;BME280;68165;51.920;4.492;2023-03-20T11:22:57;67147.47;;;11.65;100.00
44144;BME280;68165;51.920;4.492;2023-03-20T11:25:36;67146.91;;;11.64;100.00
44144;BME280;68165;51.920;4.492;2023-03-20T11:28:32;67162.56;;;11.78;100.00
44144;BME280;68165;51.920;4.492;2023-03-20T11:31:13;67168.53;;;11.81;100.00
44144;BME280;68165;51.920;4.492;2023-03-20T11:33:45;67161.28;;;11.75;100.00
44144;BME280;68165;51.920;4.492;2023-03-20T11:36:23;67154.16;;;11.71;100.00
44144;BME280;68165;51.920;4.492;2023-03-20T11:38:50;67143.16;;;11.63;100.00
44144;BME280;68165;51.920;4.492;2023-03-20T11:41:26;67147.28;;;11.62;100.00
44144;BME280;68165;51.920;4.492;2023-03-20T11:43:52;67131.81;;;11.51;100.00
44144;BME280;68165;51.920;4.492;2023-03-20T11:46:20;67139.09;;;11.57;100.00
44144;BME280;68165;51.920;4.492;2023-03-20T11:49:02;67152.88;;;11.67;100.00
44144;BME280;68165;51.920;4.492;2023-03-20T11:51:29;67143.56;;;11.61;100.00
44144;BME280;68165;51.920;4.492;2023-03-20T11:54:00;67153.84;;;11.66;100.00
44144;BME280;68165;51.920;4.492;2023-03-20T11:56:28;67157.53;;;11.74;100.00
44144;BME280;68165;51.920;4.492;2023-03-20T11:59:11;67153.22;;;11.72;100.00
44144;BME280;68165;51.920;4.492;2023-03-20T12:01:56;67151.78;;;11.66;100.00
44144;BME280;68165;51.920;4.492;2023-03-20T12:04:48;67134.97;;;11.58;100.00
44144;BME280;68165;51.920;4.492;2023-03-20T12:09:59;67098.34;;;11.20;100.00
44144;BME280;68165;51.920;4.492;2023-03-20T12:12:38;67099.84;;;11.19;100.00
44144;BME280;68165;51.920;4.492;2023-03-20T12:15:14;67099.84;;;11.19;100.00
44144;BME280;68165;51.920;4.492;2023-03-20T12:17:50;67102.81;;;11.24;100.00
44144;BME280;68165;51.920;4.492;2023-03-20T12:23:14;67114.34;;;11.32;100.00
44144;BME280;68165;51.920;4.492;2023-03-20T12:30:58;67112.28;;;11.33;100.00
44144;BME280;68165;51.920;4.492;2023-03-20T12:33:30;67105.59;;;11.27;100.00
44144;BME280;68165;51.920;4.492;2023-03-20T12:35:59;67099.84;;;11.19;100.00
44144;BME280;68165;51.920;4.492;2023-03-20T12:38:28;67095.19;;;11.20;100.00
44144;BME280;68165;51.920;4.492;2023-03-20T12:41:13;67095.56;;;11.18;100.00
44144;BME280;68165;51.920;4.492;2023-03-20T12:44:07;67098.34;;;11.20;100.00
44144;BME280;68165;51.920;4.492;2023-03-20T12:49:31;67077.53;;;10.99;100.00
44144;BME280;68165;51.920;4.492;2023-03-20T12:55:04;67073.22;;;10.97;100.00
44144;BME280;68165;51.920;4.492;2023-03-20T13:00:28;67058.75;;;10.84;100.00
44144;BME280;68165;51.920;4.492;2023-03-20T13:06:12;67070.44;;;10.95;100.00
44144;BME280;68165;51.920;4.492;2023-03-20T13:14:36;67059.06;;;10.89;100.00
44144;BME280;68165;51.920;4.492;2023-03-20T13:17:19;67068.22;;;10.93;100.00
44144;BME280;68165;51.920;4.492;2023-03-20T13:29:07;67071.56;;;10.96;100.00
44144;BME280;68165;51.920;4.492;2023-03-20T13:33:58;67075.47;;;10.99;100.00
44144;BME280;68165;51.920;4.492;2023-03-20T13:39:06;67073.78;;;10.98;100.00
44144;BME280;68165;51.920;4.492;2023-03-20T13:41:36;67059.84;;;10.85;100.00
44144;BME280;68165;51.920;4.492;2023-03-20T13:44:04;67071.00;;;10.95;100.00
44144;BME280;68165;51.920;4.492;2023-03-20T13:46:49;67083.28;;;11.07;100.00
44144;BME280;68165;51.920;4.492;2023-03-20T13:49:38;67086.63;;;11.10;100.00
44144;BME280;68165;51.920;4.492;2023-03-20T13:52:22;67083.28;;;11.07;100.00
44144;BME280;68165;51.920;4.492;2023-03-20T14:00:43;67088.84;;;11.12;100.00
44144;BME280;68165;51.920;4.492;2023-03-20T14:05:54;67078.59;;;11.07;100.00
44144;BME280;68165;51.920;4.492;2023-03-20T14:13:35;67086.84;;;11.05;100.00
44144;BME280;68165;51.920;4.492;2023-03-20T14:16:06;67087.75;;;11.11;100.00
44144;BME280;68165;51.920;4.492;2023-03-20T14:18:33;67087.75;;;11.11;100.00
44144;BME280;68165;51.920;4.492;2023-03-20T14:21:00;67082.88;;;11.09;100.00
44144;BME280;68165;51.920;4.492;2023-03-20T14:23:36;67096.69;;;11.19;100.00
44144;BME280;68165;51.920;4.492;2023-03-20T14:26:24;67107.13;;;11.26;100.00
44144;BME280;68165;51.920;4.492;2023-03-20T14:31:35;67095.00;;;11.17;100.00
44144;BME280;68165;51.920;4.492;2023-03-20T14:36:59;67088.06;;;11.16;100.00
44144;BME280;68165;51.920;4.492;2023-03-20T14:53:18;67093.72;;;11.14;100.00
44144;BME280;68165;51.920;4.492;2023-03-20T15:01:23;67086.06;;;11.09;100.00
44144;BME280;68165;51.920;4.492;2023-03-20T15:03:53;67082.16;;;11.05;100.00
44144;BME280;68165;51.920;4.492;2023-03-20T15:06:24;67093.72;;;11.14;100.00
44144;BME280;68165;51.920;4.492;2023-03-20T15:09:04;67094.09;;;11.12;100.00
44144;BME280;68165;51.920;4.492;2023-03-20T15:11:32;67088.84;;;11.12;100.00
44144;BME280;68165;51.920;4.492;2023-03-20T15:13:59;67095.56;;;11.18;100.00
44144;BME280;68165;51.920;4.492;2023-03-20T15:16:31;67105.59;;;11.27;100.00
44144;BME280;68165;51.920;4.492;2023-03-20T15:18:58;67111.19;;;11.32;100.00
44144;BME280;68165;51.920;4.492;2023-03-20T15:21:35;67110.63;;;11.31;100.00
44144;BME280;68165;51.920;4.492;2023-03-20T15:24:02;67107.13;;;11.26;100.00
44144;BME280;68165;51.920;4.492;2023-03-20T15:26:31;67111.00;;;11.29;100.00
44144;BME280;68165;51.920;4.492;2023-03-20T15:31:28;67105.59;;;11.27;100.00
44144;BME280;68165;51.920;4.492;2023-03-20T15:33:55;67105.59;;;11.27;100.00
44144;BME280;68165;51.920;4.492;2023-03-20T15:36:24;67105.59;;;11.27;100.00